createdAt,value
2022-07-28T00:02:25.509Z,-84
2022-07-28T00:04:52.065Z,-82
2022-07-28T00:07:18.677Z,-83
2022-07-28T00:09:45.135Z,-82
2022-07-28T00:12:11.673Z,-83
2022-07-28T00:14:38.197Z,-84
2022-07-28T00:17:04.646Z,-82
2022-07-28T00:19:31.252Z,-82
2022-07-28T00:21:57.719Z,-83
2022-07-28T00:24:24.409Z,-82
2022-07-28T00:26:50.885Z,-84
2022-07-28T00:29:17.744Z,-82
2022-07-28T00:31:44.321Z,-82
2022-07-28T00:34:12.355Z,-83
2022-07-28T00:36:39.251Z,-82
2022-07-28T00:39:05.731Z,-81
2022-07-28T00:41:32.694Z,-83
2022-07-28T00:43:59.440Z,-78
2022-07-28T00:46:25.966Z,-79
2022-07-28T00:48:54.229Z,-79
2022-07-28T00:51:24.557Z,-79
2022-07-28T00:53:52.679Z,-79
2022-07-28T00:56:19.983Z,-79
2022-07-28T00:58:47.329Z,-83
2022-07-28T01:01:17.660Z,-83
2022-07-28T01:03:46.634Z,-83
2022-07-28T01:06:32.498Z,-83
2022-07-28T01:09:40.268Z,-83
2022-07-28T01:12:25.716Z,-81
2022-07-28T01:15:01.299Z,-82
2022-07-28T01:17:49.897Z,-82
2022-07-28T01:20:21.085Z,-80
2022-07-28T01:23:26.460Z,-83
2022-07-28T01:26:16.110Z,-83
2022-07-28T01:28:57.864Z,-83
2022-07-28T01:31:26.764Z,-83
2022-07-28T01:33:59.367Z,-83
2022-07-28T01:36:37.017Z,-83
2022-07-28T01:39:04.004Z,-82
2022-07-28T01:41:33.804Z,-82
2022-07-28T01:44:08.534Z,-84
2022-07-28T01:46:37.278Z,-82
2022-07-28T01:49:05.151Z,-81
2022-07-28T01:51:33.840Z,-78
2022-07-28T01:54:02.793Z,-80
2022-07-28T01:56:33.030Z,-79
2022-07-28T01:59:06.009Z,-78
2022-07-28T02:01:36.784Z,-80
2022-07-28T02:04:06.659Z,-82
2022-07-28T02:06:34.301Z,-82
2022-07-28T02:09:03.665Z,-82
2022-07-28T02:11:40.752Z,-82
2022-07-28T02:14:16.428Z,-82
2022-07-28T02:16:47.057Z,-80
2022-07-28T02:19:14.554Z,-79
2022-07-28T02:21:42.761Z,-83
2022-07-28T02:24:12.310Z,-81
2022-07-28T02:26:44.593Z,-82
2022-07-28T02:29:33.355Z,-82
2022-07-28T02:32:27.248Z,-82
2022-07-28T02:34:58.943Z,-81
2022-07-28T02:37:26.744Z,-80
2022-07-28T02:40:00.388Z,-82
2022-07-28T02:42:31.066Z,-82
2022-07-28T02:45:00.755Z,-82
2022-07-28T02:47:30.329Z,-83
2022-07-28T02:50:01.025Z,-86
2022-07-28T02:52:28.788Z,-84
2022-07-28T02:54:57.547Z,-85
2022-07-28T02:57:26.143Z,-84
2022-07-28T02:59:54.023Z,-83
2022-07-28T03:02:22.096Z,-82
2022-07-28T03:05:02.200Z,-84
2022-07-28T03:07:30.886Z,-83
2022-07-28T03:09:59.096Z,-82
2022-07-28T03:12:26.568Z,-83
2022-07-28T03:14:53.245Z,-84
2022-07-28T03:17:20.024Z,-82
2022-07-28T03:19:46.594Z,-62
2022-07-28T03:22:14.320Z,-60
2022-07-28T03:24:44.564Z,-61
2022-07-28T03:27:28.098Z,-60
2022-07-28T03:30:05.044Z,-60
2022-07-28T03:32:35.154Z,-61
2022-07-28T03:35:02.458Z,-61
2022-07-28T03:37:35.758Z,-61
2022-07-28T03:40:04.161Z,-62
2022-07-28T03:42:30.829Z,-60
2022-07-28T03:44:57.393Z,-60
2022-07-28T03:47:24.974Z,-61
2022-07-28T03:49:51.645Z,-61
2022-07-28T03:52:19.115Z,-61
2022-07-28T03:54:45.687Z,-61
2022-07-28T03:57:12.137Z,-61
2022-07-28T03:59:38.764Z,-61
2022-07-28T04:02:06.560Z,-61
2022-07-28T04:04:33.147Z,-62
2022-07-28T04:06:59.681Z,-61
2022-07-28T04:09:26.269Z,-61
2022-07-28T04:11:52.725Z,-61
2022-07-28T04:14:19.523Z,-61
2022-07-28T04:16:46.613Z,-62
2022-07-28T04:19:13.129Z,-61
2022-07-28T04:21:39.580Z,-61
2022-07-28T04:24:06.948Z,-61
2022-07-28T04:26:33.486Z,-61
2022-07-28T04:28:59.971Z,-61
2022-07-28T04:31:30.276Z,-61
2022-07-28T04:33:56.909Z,-63
2022-07-28T04:36:23.370Z,-59
2022-07-28T04:38:49.899Z,-63
2022-07-28T04:41:16.320Z,-60
2022-07-28T04:43:43.310Z,-58
2022-07-28T04:46:14.583Z,-58
2022-07-28T04:48:41.611Z,-58
2022-07-28T04:51:08.247Z,-59
2022-07-28T04:53:35.133Z,-59
2022-07-28T04:56:01.603Z,-58
2022-07-28T04:58:29.433Z,-58
2022-07-28T05:00:57.574Z,-58
2022-07-28T05:03:24.176Z,-58
2022-07-28T05:05:53.429Z,-57
2022-07-28T05:08:21.989Z,-59
2022-07-28T05:10:53.041Z,-60
2022-07-28T05:13:19.523Z,-60
2022-07-28T05:15:46.281Z,-60
2022-07-28T05:18:12.773Z,-56
2022-07-28T05:20:39.195Z,-57
2022-07-28T05:23:05.702Z,-57
2022-07-28T05:25:32.239Z,-57
2022-07-28T05:27:58.794Z,-59
2022-07-28T05:30:25.465Z,-57
2022-07-28T05:32:53.822Z,-57
2022-07-28T05:35:20.555Z,-57
2022-07-28T05:37:47.260Z,-57
2022-07-28T05:40:15.339Z,-57
2022-07-28T05:42:43.919Z,-57
2022-07-28T05:45:15.767Z,-57
2022-07-28T05:47:48.762Z,-57
2022-07-28T05:50:16.904Z,-57
2022-07-28T05:52:44.171Z,-57
2022-07-28T05:55:11.046Z,-57
2022-07-28T05:57:38.416Z,-58
2022-07-28T06:00:14.282Z,-57
2022-07-28T06:02:41.835Z,-58
2022-07-28T06:05:08.976Z,-57
2022-07-28T06:07:42.733Z,-57
2022-07-28T06:10:15.638Z,-57
2022-07-28T06:12:44.294Z,-57
2022-07-28T06:15:15.146Z,-57
2022-07-28T06:17:42.627Z,-57
2022-07-28T06:20:10.789Z,-57
2022-07-28T06:22:45.316Z,-57
2022-07-28T06:25:16.131Z,-57
2022-07-28T06:27:42.844Z,-57
2022-07-28T06:30:10.143Z,-56
2022-07-28T06:32:36.713Z,-57
2022-07-28T06:35:04.035Z,-57
2022-07-28T06:37:30.519Z,-57
2022-07-28T06:39:57.085Z,-57
2022-07-28T06:42:23.962Z,-57
2022-07-28T06:44:59.051Z,-58
2022-07-28T06:47:26.654Z,-58
2022-07-28T06:49:53.076Z,-58
2022-07-28T06:52:20.778Z,-57
2022-07-28T06:54:50.630Z,-58
2022-07-28T06:57:22.482Z,-57
2022-07-28T06:59:55.062Z,-57
2022-07-28T07:02:26.402Z,-58
2022-07-28T07:04:54.927Z,-57
2022-07-28T07:07:22.673Z,-57
2022-07-28T07:09:49.242Z,-57
2022-07-28T07:12:15.751Z,-57
2022-07-28T07:14:42.490Z,-56
2022-07-28T07:17:08.941Z,-57
2022-07-28T07:19:35.412Z,-56
2022-07-28T07:22:02.046Z,-57
2022-07-28T07:24:28.571Z,-57
2022-07-28T07:26:55.622Z,-57
2022-07-28T07:29:22.894Z,-57
2022-07-28T07:31:52.949Z,-56
2022-07-28T07:34:20.095Z,-57
2022-07-28T07:36:46.768Z,-56
2022-07-28T07:39:13.779Z,-56
2022-07-28T07:41:40.277Z,-56
2022-07-28T07:44:06.807Z,-56
2022-07-28T07:46:33.342Z,-56
2022-07-28T07:48:59.896Z,-59
2022-07-28T07:51:26.381Z,-59
2022-07-28T07:53:52.864Z,-57
2022-07-28T07:56:19.342Z,-57
2022-07-28T07:58:45.804Z,-57
2022-07-28T08:01:13.060Z,-59
2022-07-28T08:03:39.538Z,-57
2022-07-28T08:06:05.999Z,-58
2022-07-28T08:08:36.794Z,-58
2022-07-28T08:11:07.272Z,-56
2022-07-28T08:13:34.515Z,-58
2022-07-28T08:16:01.308Z,-57
2022-07-28T08:18:27.795Z,-58
2022-07-28T08:20:54.238Z,-58
2022-07-28T08:23:26.054Z,-59
2022-07-28T08:25:52.939Z,-59
2022-07-28T08:28:19.359Z,-59
2022-07-28T08:30:46.075Z,-59
2022-07-28T08:33:12.538Z,-59
2022-07-28T08:35:40.021Z,-59
2022-07-28T08:38:06.996Z,-59
2022-07-28T08:40:36.324Z,-60
2022-07-28T08:43:12.319Z,-60
2022-07-28T08:45:40.597Z,-59
2022-07-28T08:48:11.450Z,-59
2022-07-28T08:50:39.427Z,-59
2022-07-28T08:53:07.856Z,-60
2022-07-28T08:55:35.725Z,-59
2022-07-28T08:58:03.251Z,-59
2022-07-28T09:00:30.197Z,-59
2022-07-28T09:02:57.228Z,-59
2022-07-28T09:05:24.802Z,-59
2022-07-28T09:07:55.417Z,-59
2022-07-28T09:10:22.584Z,-59
2022-07-28T09:12:49.407Z,-59
2022-07-28T09:15:15.953Z,-59
2022-07-28T09:17:42.701Z,-65
2022-07-28T09:20:11.703Z,-66
2022-07-28T09:23:02.211Z,-66
2022-07-28T09:25:29.694Z,-66
2022-07-28T09:27:59.242Z,-68
2022-07-28T09:30:33.813Z,-66
2022-07-28T09:33:40.958Z,-66
2022-07-28T09:36:02.313Z,-67
2022-07-28T09:38:40.507Z,-65
2022-07-28T09:41:07.429Z,-66
2022-07-28T09:43:39.249Z,-67
2022-07-28T09:46:08.497Z,-66
2022-07-28T09:48:43.280Z,-65
2022-07-28T09:51:14.785Z,-66
2022-07-28T09:53:41.965Z,-62
2022-07-28T09:56:09.544Z,-66
2022-07-28T09:58:36.829Z,-66
2022-07-28T10:01:09.871Z,-65
2022-07-28T10:03:40.735Z,-65
2022-07-28T10:06:08.609Z,-68
2022-07-28T10:08:49.074Z,-66
2022-07-28T10:11:30.233Z,-67
2022-07-28T10:13:58.644Z,-67
2022-07-28T10:16:28.462Z,-67
2022-07-28T10:18:56.654Z,-68
2022-07-28T10:21:25.082Z,-68
2022-07-28T10:23:57.457Z,-67
2022-07-28T10:26:44.775Z,-68
2022-07-28T10:29:17.597Z,-67
2022-07-28T10:32:00.471Z,-68
2022-07-28T10:34:43.859Z,-67
2022-07-28T10:37:17.381Z,-68
2022-07-28T10:39:49.483Z,-67
2022-07-28T10:42:16.475Z,-66
2022-07-28T10:44:45.212Z,-68
2022-07-28T10:47:18.098Z,-67
2022-07-28T10:49:48.642Z,-67
2022-07-28T10:52:37.703Z,-67
2022-07-28T10:55:20.455Z,-68
2022-07-28T10:58:13.463Z,-68
2022-07-28T11:00:56.659Z,-68
2022-07-28T11:03:47.072Z,-69
2022-07-28T11:06:36.092Z,-68
2022-07-28T11:09:17.800Z,-68
2022-07-28T11:11:47.154Z,-68
2022-07-28T11:14:39.400Z,-67
2022-07-28T11:17:10.341Z,-68
2022-07-28T11:20:06.890Z,-66
2022-07-28T11:22:32.140Z,-67
2022-07-28T11:25:00.872Z,-67
2022-07-28T11:27:50.562Z,-67
2022-07-28T11:30:27.753Z,-68
2022-07-28T11:32:54.289Z,-67
2022-07-28T11:35:21.441Z,-67
2022-07-28T11:38:03.434Z,-69
2022-07-28T11:40:30.952Z,-68
2022-07-28T11:43:35.464Z,-67
2022-07-28T11:46:02.550Z,-67
2022-07-28T11:48:30.516Z,-68
2022-07-28T11:51:02.770Z,-68
2022-07-28T11:53:47.438Z,-67
2022-07-28T11:56:26.318Z,-68
2022-07-28T11:58:57.367Z,-65
2022-07-28T12:01:24.110Z,-62
2022-07-28T12:03:56.286Z,-67
2022-07-28T12:06:35.509Z,-67
2022-07-28T12:09:05.458Z,-68
2022-07-28T12:11:43.943Z,-67
2022-07-28T12:14:14.049Z,-67
2022-07-28T12:16:43.326Z,-67
2022-07-28T12:19:11.704Z,-67
2022-07-28T12:21:46.336Z,-67
2022-07-28T12:24:29.646Z,-67
2022-07-28T12:26:57.594Z,-67
2022-07-28T12:29:25.092Z,-67
2022-07-28T12:32:02.052Z,-68
2022-07-28T12:34:30.337Z,-68
2022-07-28T12:36:58.873Z,-67
2022-07-28T12:39:26.376Z,-67
2022-07-28T12:42:04.665Z,-67
2022-07-28T12:44:42.751Z,-62
2022-07-28T12:47:12.160Z,-64
2022-07-28T12:49:40.666Z,-59
2022-07-28T12:52:22.704Z,-65
2022-07-28T12:54:55.477Z,-64
2022-07-28T12:57:50.959Z,-66
2022-07-28T13:00:49.133Z,-63
2022-07-28T13:03:27.867Z,-63
2022-07-28T13:06:04.511Z,-67
2022-07-28T13:08:38.786Z,-65
2022-07-28T13:11:42.023Z,-60
2022-07-28T13:13:59.975Z,-61
2022-07-28T13:16:28.240Z,-62
2022-07-28T13:19:04.463Z,-66
2022-07-28T13:21:58.548Z,-64
2022-07-28T13:24:28.796Z,-64
2022-07-28T13:26:56.564Z,-65
2022-07-28T13:29:23.747Z,-59
2022-07-28T13:31:50.593Z,-59
2022-07-28T13:34:17.657Z,-54
2022-07-28T13:36:44.390Z,-59
2022-07-28T13:39:10.999Z,-59
2022-07-28T13:41:57.076Z,-59
2022-07-28T13:44:24.838Z,-61
2022-07-28T13:46:51.599Z,-60
2022-07-28T13:49:21.529Z,-58
2022-07-28T13:51:48.741Z,-59
2022-07-28T13:54:17.968Z,-61
2022-07-28T13:56:45.390Z,-59
2022-07-28T13:59:13.637Z,-59
2022-07-28T14:01:41.413Z,-60
2022-07-28T14:04:14.601Z,-60
2022-07-28T14:06:45.054Z,-60
2022-07-28T14:09:12.091Z,-61
2022-07-28T14:11:41.386Z,-59
2022-07-28T14:14:17.547Z,-64
2022-07-28T14:16:47.820Z,-61
2022-07-28T14:19:16.579Z,-64
2022-07-28T14:21:50.277Z,-61
2022-07-28T14:24:17.531Z,-63
2022-07-28T14:26:44.401Z,-57
2022-07-28T14:29:11.470Z,-64
2022-07-28T14:31:38.416Z,-65
2022-07-28T14:34:05.063Z,-64
2022-07-28T14:36:31.563Z,-64
2022-07-28T14:38:58.016Z,-55
2022-07-28T14:41:25.799Z,-62
2022-07-28T14:43:52.892Z,-64
2022-07-28T14:46:21.809Z,-64
2022-07-28T14:48:48.864Z,-64
2022-07-28T14:51:15.904Z,-64
2022-07-28T14:53:49.832Z,-63
2022-07-28T14:56:18.524Z,-63
2022-07-28T14:58:45.055Z,-64
2022-07-28T15:01:11.659Z,-63
2022-07-28T15:03:43.283Z,-65
2022-07-28T15:06:10.265Z,-63
2022-07-28T15:08:36.985Z,-63
2022-07-28T15:11:03.477Z,-62
2022-07-28T15:13:30.438Z,-63
2022-07-28T15:15:59.720Z,-62
2022-07-28T15:18:26.344Z,-57
2022-07-28T15:20:54.602Z,-57
2022-07-28T15:23:21.728Z,-58
2022-07-28T15:25:48.238Z,-57
2022-07-28T15:28:17.867Z,-58
2022-07-28T15:30:51.329Z,-58
2022-07-28T15:33:19.684Z,-58
2022-07-28T15:35:58.039Z,-58
2022-07-28T15:38:26.268Z,-58
2022-07-28T15:40:52.929Z,-58
2022-07-28T15:43:19.889Z,-58
2022-07-28T15:45:50.575Z,-58
2022-07-28T15:48:17.393Z,-61
2022-07-28T15:50:48.557Z,-59
2022-07-28T15:53:18.575Z,-59
2022-07-28T15:55:50.499Z,-59
2022-07-28T15:58:17.939Z,-60
2022-07-28T16:00:45.908Z,-59
2022-07-28T16:03:12.836Z,-58
2022-07-28T16:05:39.727Z,-59
2022-07-28T16:08:06.468Z,-59
2022-07-28T16:10:33.133Z,-59
2022-07-28T16:12:59.641Z,-59
2022-07-28T16:15:26.960Z,-59
2022-07-28T16:17:54.540Z,-60
2022-07-28T16:20:21.823Z,-60
2022-07-28T16:22:48.509Z,-60
2022-07-28T16:25:20.686Z,-59
2022-07-28T16:27:48.327Z,-59
2022-07-28T16:30:16.976Z,-60
2022-07-28T16:32:43.568Z,-60
2022-07-28T16:35:10.541Z,-59
2022-07-28T16:37:37.073Z,-60
2022-07-28T16:40:04.325Z,-60
2022-07-28T16:42:31.619Z,-60
2022-07-28T16:44:58.234Z,-59
2022-07-28T16:47:24.935Z,-60
2022-07-28T16:49:51.555Z,-60
2022-07-28T16:52:18.185Z,-59
2022-07-28T16:54:45.658Z,-59
2022-07-28T16:57:14.266Z,-60
2022-07-28T16:59:47.849Z,-60
2022-07-28T17:02:15.297Z,-59
2022-07-28T17:04:42.066Z,-59
2022-07-28T17:07:08.698Z,-59
2022-07-28T17:09:35.113Z,-58
2022-07-28T17:12:01.593Z,-59
2022-07-28T17:14:28.086Z,-58
2022-07-28T17:16:54.564Z,-58
2022-07-28T17:19:22.083Z,-58
2022-07-28T17:21:48.626Z,-58
2022-07-28T17:24:15.781Z,-58
2022-07-28T17:27:35.230Z,-58
2022-07-28T17:29:29.531Z,-59
2022-07-28T17:31:56.041Z,-58
2022-07-28T17:34:22.685Z,-58
2022-07-28T17:36:50.348Z,-58
2022-07-28T17:39:16.828Z,-58
2022-07-28T17:41:43.413Z,-59
2022-07-28T17:44:09.975Z,-58
2022-07-28T17:46:36.704Z,-61
2022-07-28T17:49:05.554Z,-61
2022-07-28T17:51:32.206Z,-61
2022-07-28T17:53:58.960Z,-61
2022-07-28T17:56:26.092Z,-60
2022-07-28T17:58:53.090Z,-61
2022-07-28T18:01:19.652Z,-61
2022-07-28T18:03:58.692Z,-61
2022-07-28T18:06:37.354Z,-61
2022-07-28T18:09:08.197Z,-61
2022-07-28T18:11:55.733Z,-60
2022-07-28T18:14:23.969Z,-61
2022-07-28T18:16:50.422Z,-61
2022-07-28T18:19:17.114Z,-61
2022-07-28T18:21:43.806Z,-61
2022-07-28T18:24:10.308Z,-61
2022-07-28T18:26:36.783Z,-60
2022-07-28T18:29:03.322Z,-61
2022-07-28T18:31:30.260Z,-61
2022-07-28T18:33:56.885Z,-61
2022-07-28T18:36:23.374Z,-61
2022-07-28T18:38:49.843Z,-61
2022-07-28T18:41:17.761Z,-61
2022-07-28T18:43:44.236Z,-61
2022-07-28T18:46:11.206Z,-61
2022-07-28T18:48:38.062Z,-61
2022-07-28T18:51:05.548Z,-61
2022-07-28T18:53:32.119Z,-61
2022-07-28T18:55:58.547Z,-61
2022-07-28T18:58:24.979Z,-61
2022-07-28T19:00:51.820Z,-61
2022-07-28T19:03:18.376Z,-61
2022-07-28T19:05:46.416Z,-61
2022-07-28T19:08:13.320Z,-61
2022-07-28T19:10:40.177Z,-62
2022-07-28T19:13:09.026Z,-62
2022-07-28T19:15:39.023Z,-62
2022-07-28T19:18:10.516Z,-61
2022-07-28T19:20:39.475Z,-61
2022-07-28T19:23:06.043Z,-60
2022-07-28T19:25:35.512Z,-60
2022-07-28T19:28:02.036Z,-60
2022-07-28T19:30:30.232Z,-59
2022-07-28T19:32:56.699Z,-59
2022-07-28T19:35:23.370Z,-59
2022-07-28T19:37:50.798Z,-59
2022-07-28T19:40:17.370Z,-59
2022-07-28T19:42:43.850Z,-59
2022-07-28T19:45:10.562Z,-58
2022-07-28T19:47:37.265Z,-58
2022-07-28T19:50:05.226Z,-58
2022-07-28T19:52:31.856Z,-58
2022-07-28T19:54:58.325Z,-58
2022-07-28T19:57:25.342Z,-63
2022-07-28T19:59:51.801Z,-64
2022-07-28T20:02:18.313Z,-63
2022-07-28T20:04:44.813Z,-63
2022-07-28T20:07:11.276Z,-63
2022-07-28T20:09:37.742Z,-64
2022-07-28T20:12:04.578Z,-64
2022-07-28T20:14:34.854Z,-63
2022-07-28T20:17:01.522Z,-64
2022-07-28T20:19:28.078Z,-63
2022-07-28T20:21:54.635Z,-65
2022-07-28T20:24:21.218Z,-63
2022-07-28T20:26:47.648Z,-62
2022-07-28T20:29:14.556Z,-61
2022-07-28T20:31:41.012Z,-63
2022-07-28T20:34:07.682Z,-63
2022-07-28T20:36:34.635Z,-63
2022-07-28T20:39:01.286Z,-63
2022-07-28T20:41:27.741Z,-63
2022-07-28T20:46:41.273Z,-62
2022-07-28T20:49:07.999Z,-62
2022-07-28T20:51:34.563Z,-62
2022-07-28T20:54:01.026Z,-62
2022-07-28T20:56:27.454Z,-62
2022-07-28T20:58:54.129Z,-62
2022-07-28T21:01:23.332Z,-62
2022-07-28T21:03:50.009Z,-62
2022-07-28T21:06:16.484Z,-62
2022-07-28T21:08:44.857Z,-62
2022-07-28T21:11:11.942Z,-61
2022-07-28T21:13:38.399Z,-62
2022-07-28T21:16:05.079Z,-63
2022-07-28T21:18:31.596Z,-65
2022-07-28T21:20:59.577Z,-64
2022-07-28T21:23:26.219Z,-64
2022-07-28T21:25:53.311Z,-65
2022-07-28T21:28:38.440Z,-65
2022-07-28T21:31:04.984Z,-64
2022-07-28T21:33:31.632Z,-65
2022-07-28T21:35:58.344Z,-65
2022-07-28T21:38:24.837Z,-64
2022-07-28T21:40:52.450Z,-64
2022-07-28T21:43:18.985Z,-65
2022-07-28T21:45:46.636Z,-65
2022-07-28T21:48:13.209Z,-64
2022-07-28T21:50:39.653Z,-66
2022-07-28T21:53:06.159Z,-66
2022-07-28T21:55:33.202Z,-66
2022-07-28T21:57:59.750Z,-65
2022-07-28T22:00:26.344Z,-64
2022-07-28T22:02:53.396Z,-66
2022-07-28T22:05:20.296Z,-65
2022-07-28T22:07:48.213Z,-64
2022-07-28T22:10:15.193Z,-64
2022-07-28T22:12:42.022Z,-65
2022-07-28T22:15:08.856Z,-65
2022-07-28T22:17:35.305Z,-67
2022-07-28T22:20:02.422Z,-65
2022-07-28T22:22:29.376Z,-65
2022-07-28T22:24:55.957Z,-65
2022-07-28T22:27:22.979Z,-66
2022-07-28T22:29:50.026Z,-65
2022-07-28T22:32:26.682Z,-64
2022-07-28T22:34:55.341Z,-65
2022-07-28T22:37:22.118Z,-62
2022-07-28T22:39:48.614Z,-65
2022-07-28T22:42:15.169Z,-64
2022-07-28T22:44:42.026Z,-67
2022-07-28T22:47:08.559Z,-67
2022-07-28T22:49:35.121Z,-66
2022-07-28T22:52:02.145Z,-67
2022-07-28T22:54:28.584Z,-65
2022-07-28T22:56:55.018Z,-65
2022-07-28T22:59:21.818Z,-66
2022-07-28T23:01:51.928Z,-66
2022-07-28T23:04:18.764Z,-65
2022-07-28T23:06:45.697Z,-65
2022-07-28T23:09:13.136Z,-65
2022-07-28T23:11:39.706Z,-65
2022-07-28T23:14:06.244Z,-65
2022-07-28T23:16:32.791Z,-63
2022-07-28T23:19:00.355Z,-63
2022-07-28T23:21:26.865Z,-63
2022-07-28T23:23:53.451Z,-66
2022-07-28T23:26:20.272Z,-63
2022-07-28T23:28:46.779Z,-65
2022-07-28T23:31:13.343Z,-66
2022-07-28T23:33:54.530Z,-64
2022-07-28T23:36:26.521Z,-65
2022-07-28T23:38:56.526Z,-63
2022-07-28T23:41:23.313Z,-64
2022-07-28T23:43:49.945Z,-65
2022-07-28T23:46:16.481Z,-64
2022-07-28T23:48:43.522Z,-64
2022-07-28T23:51:10.459Z,-66
2022-07-28T23:53:38.059Z,-65
2022-07-28T23:56:05.277Z,-65
2022-07-28T23:58:31.872Z,-65
